sensor_id;sensor_type;location;lat;lon;timestamp;P1;durP1;ratioP1;P2;durP2;ratioP2
13026;SDS011;6580;42.680;23.324;2023-03-01T00:01:16;4.43;;;3.23;;
13026;SDS011;6580;42.680;23.324;2023-03-01T00:03:48;4.03;;;3.43;;
13026;SDS011;6580;42.680;23.324;2023-03-01T00:06:16;4.53;;;3.20;;
13026;SDS011;6580;42.680;23.324;2023-03-01T00:08:45;3.77;;;3.37;;
13026;SDS011;6580;42.680;23.324;2023-03-01T00:11:13;3.80;;;3.40;;
13026;SDS011;6580;42.680;23.324;2023-03-01T00:13:44;4.37;;;3.10;;
13026;SDS011;6580;42.680;23.324;2023-03-01T00:16:13;4.17;;;3.60;;
13026;SDS011;6580;42.680;23.324;2023-03-01T00:18:41;3.70;;;3.10;;
13026;SDS011;6580;42.680;23.324;2023-03-01T00:21:11;3.80;;;3.40;;
13026;SDS011;6580;42.680;23.324;2023-03-01T00:23:38;4.40;;;3.07;;
13026;SDS011;6580;42.680;23.324;2023-03-01T00:26:06;3.63;;;2.87;;
13026;SDS011;6580;42.680;23.324;2023-03-01T00:28:35;2.80;;;2.60;;
13026;SDS011;6580;42.680;23.324;2023-03-01T00:31:03;3.70;;;3.40;;
13026;SDS011;6580;42.680;23.324;2023-03-01T00:33:31;3.57;;;3.13;;
13026;SDS011;6580;42.680;23.324;2023-03-01T00:35:58;3.40;;;3.10;;
13026;SDS011;6580;42.680;23.324;2023-03-01T00:38:26;3.80;;;3.37;;
13026;SDS011;6580;42.680;23.324;2023-03-01T00:40:54;3.10;;;2.80;;
13026;SDS011;6580;42.680;23.324;2023-03-01T00:43:21;3.63;;;2.97;;
13026;SDS011;6580;42.680;23.324;2023-03-01T00:45:48;4.03;;;3.20;;
13026;SDS011;6580;42.680;23.324;2023-03-01T00:48:16;3.70;;;3.30;;
13026;SDS011;6580;42.680;23.324;2023-03-01T00:50:43;3.17;;;2.87;;
13026;SDS011;6580;42.680;23.324;2023-03-01T00:53:10;3.33;;;3.03;;
13026;SDS011;6580;42.680;23.324;2023-03-01T00:55:38;2.77;;;2.57;;
13026;SDS011;6580;42.680;23.324;2023-03-01T00:58:07;2.80;;;2.60;;
13026;SDS011;6580;42.680;23.324;2023-03-01T01:00:36;2.53;;;2.33;;
13026;SDS011;6580;42.680;23.324;2023-03-01T01:03:06;2.87;;;2.60;;
13026;SDS011;6580;42.680;23.324;2023-03-01T01:05:34;3.17;;;2.77;;
13026;SDS011;6580;42.680;23.324;2023-03-01T01:08:00;2.20;;;2.00;;
13026;SDS011;6580;42.680;23.324;2023-03-01T01:10:27;3.07;;;2.73;;
13026;SDS011;6580;42.680;23.324;2023-03-01T01:12:56;2.87;;;2.57;;
13026;SDS011;6580;42.680;23.324;2023-03-01T01:15:25;3.20;;;2.87;;
13026;SDS011;6580;42.680;23.324;2023-03-01T01:17:52;2.50;;;2.30;;
13026;SDS011;6580;42.680;23.324;2023-03-01T01:20:21;2.50;;;2.30;;
13026;SDS011;6580;42.680;23.324;2023-03-01T01:22:48;2.67;;;2.17;;
13026;SDS011;6580;42.680;23.324;2023-03-01T01:25:16;2.70;;;2.40;;
13026;SDS011;6580;42.680;23.324;2023-03-01T01:27:43;2.43;;;2.23;;
13026;SDS011;6580;42.680;23.324;2023-03-01T01:30:12;2.30;;;2.00;;
13026;SDS011;6580;42.680;23.324;2023-03-01T01:32:42;2.73;;;2.53;;
13026;SDS011;6580;42.680;23.324;2023-03-01T01:35:09;2.17;;;1.97;;
13026;SDS011;6580;42.680;23.324;2023-03-01T01:37:35;2.43;;;2.23;;
13026;SDS011;6580;42.680;23.324;2023-03-01T01:40:04;2.83;;;2.20;;
13026;SDS011;6580;42.680;23.324;2023-03-01T01:42:37;2.40;;;2.20;;
13026;SDS011;6580;42.680;23.324;2023-03-01T01:48:03;2.27;;;2.17;;
13026;SDS011;6580;42.680;23.324;2023-03-01T01:50:34;2.13;;;1.80;;
13026;SDS011;6580;42.680;23.324;2023-03-01T01:53:10;2.10;;;1.90;;
13026;SDS011;6580;42.680;23.324;2023-03-01T01:55:39;2.30;;;2.17;;
13026;SDS011;6580;42.680;23.324;2023-03-01T01:58:09;2.50;;;2.30;;
13026;SDS011;6580;42.680;23.324;2023-03-01T02:00:45;2.40;;;2.20;;
13026;SDS011;6580;42.680;23.324;2023-03-01T02:03:14;2.03;;;1.93;;
13026;SDS011;6580;42.680;23.324;2023-03-01T02:05:46;1.90;;;1.80;;
13026;SDS011;6580;42.680;23.324;2023-03-01T02:08:19;2.00;;;1.90;;
13026;SDS011;6580;42.680;23.324;2023-03-01T02:10:49;2.43;;;2.07;;
13026;SDS011;6580;42.680;23.324;2023-03-01T02:13:20;1.90;;;1.80;;
13026;SDS011;6580;42.680;23.324;2023-03-01T02:15:48;2.20;;;2.10;;
13026;SDS011;6580;42.680;23.324;2023-03-01T02:18:16;2.10;;;1.90;;
13026;SDS011;6580;42.680;23.324;2023-03-01T02:20:48;2.07;;;1.97;;
13026;SDS011;6580;42.680;23.324;2023-03-01T02:23:27;2.43;;;2.23;;
13026;SDS011;6580;42.680;23.324;2023-03-01T02:25:57;2.20;;;2.10;;
13026;SDS011;6580;42.680;23.324;2023-03-01T02:28:31;2.07;;;1.97;;
13026;SDS011;6580;42.680;23.324;2023-03-01T02:30:59;2.63;;;2.43;;
13026;SDS011;6580;42.680;23.324;2023-03-01T02:33:44;2.50;;;2.30;;
13026;SDS011;6580;42.680;23.324;2023-03-01T02:36:14;2.50;;;2.30;;
13026;SDS011;6580;42.680;23.324;2023-03-01T02:38:45;2.43;;;2.23;;
13026;SDS011;6580;42.680;23.324;2023-03-01T02:41:15;2.37;;;2.17;;
13026;SDS011;6580;42.680;23.324;2023-03-01T02:43:46;2.27;;;2.17;;
13026;SDS011;6580;42.680;23.324;2023-03-01T02:46:15;2.50;;;2.30;;
13026;SDS011;6580;42.680;23.324;2023-03-01T02:48:44;2.70;;;2.50;;
13026;SDS011;6580;42.680;23.324;2023-03-01T02:51:29;2.73;;;2.53;;
13026;SDS011;6580;42.680;23.324;2023-03-01T02:54:08;2.47;;;2.00;;
13026;SDS011;6580;42.680;23.324;2023-03-01T02:56:43;2.03;;;1.93;;
13026;SDS011;6580;42.680;23.324;2023-03-01T02:59:14;2.27;;;2.07;;
13026;SDS011;6580;42.680;23.324;2023-03-01T03:01:43;2.10;;;1.90;;
13026;SDS011;6580;42.680;23.324;2023-03-01T03:04:13;1.80;;;1.70;;
13026;SDS011;6580;42.680;23.324;2023-03-01T03:06:42;2.57;;;2.37;;
13026;SDS011;6580;42.680;23.324;2023-03-01T03:09:09;2.30;;;2.10;;
13026;SDS011;6580;42.680;23.324;2023-03-01T03:11:37;2.10;;;2.00;;
13026;SDS011;6580;42.680;23.324;2023-03-01T03:14:06;2.93;;;2.73;;
13026;SDS011;6580;42.680;23.324;2023-03-01T03:16:39;2.53;;;2.33;;
13026;SDS011;6580;42.680;23.324;2023-03-01T03:19:09;3.63;;;2.80;;
13026;SDS011;6580;42.680;23.324;2023-03-01T03:21:36;3.30;;;3.00;;
13026;SDS011;6580;42.680;23.324;2023-03-01T03:24:05;2.93;;;2.60;;
13026;SDS011;6580;42.680;23.324;2023-03-01T03:26:32;2.87;;;2.60;;
13026;SDS011;6580;42.680;23.324;2023-03-01T03:28:59;2.87;;;2.67;;
13026;SDS011;6580;42.680;23.324;2023-03-01T03:31:26;3.20;;;2.90;;
13026;SDS011;6580;42.680;23.324;2023-03-01T03:33:54;2.40;;;2.20;;
13026;SDS011;6580;42.680;23.324;2023-03-01T03:36:22;4.00;;;3.30;;
13026;SDS011;6580;42.680;23.324;2023-03-01T03:38:50;3.00;;;2.80;;
13026;SDS011;6580;42.680;23.324;2023-03-01T03:41:17;3.30;;;2.60;;
13026;SDS011;6580;42.680;23.324;2023-03-01T03:46:29;4.37;;;3.43;;
13026;SDS011;6580;42.680;23.324;2023-03-01T03:49:17;3.77;;;3.17;;
13026;SDS011;6580;42.680;23.324;2023-03-01T03:51:45;3.33;;;3.03;;
13026;SDS011;6580;42.680;23.324;2023-03-01T03:54:12;3.40;;;2.60;;
13026;SDS011;6580;42.680;23.324;2023-03-01T03:56:39;3.03;;;2.73;;
13026;SDS011;6580;42.680;23.324;2023-03-01T03:59:05;3.27;;;2.93;;
13026;SDS011;6580;42.680;23.324;2023-03-01T04:01:50;3.20;;;2.90;;
13026;SDS011;6580;42.680;23.324;2023-03-01T04:04:18;2.87;;;2.67;;
13026;SDS011;6580;42.680;23.324;2023-03-01T04:06:45;2.93;;;2.70;;
13026;SDS011;6580;42.680;23.324;2023-03-01T04:09:13;2.17;;;2.07;;
13026;SDS011;6580;42.680;23.324;2023-03-01T04:11:40;2.97;;;2.70;;
13026;SDS011;6580;42.680;23.324;2023-03-01T04:14:07;2.73;;;2.40;;
13026;SDS011;6580;42.680;23.324;2023-03-01T04:16:34;2.87;;;2.57;;
13026;SDS011;6580;42.680;23.324;2023-03-01T04:19:00;2.80;;;2.60;;
13026;SDS011;6580;42.680;23.324;2023-03-01T04:21:29;3.40;;;2.70;;
13026;SDS011;6580;42.680;23.324;2023-03-01T04:23:55;2.73;;;2.50;;
13026;SDS011;6580;42.680;23.324;2023-03-01T04:26:22;4.47;;;2.43;;
13026;SDS011;6580;42.680;23.324;2023-03-01T04:28:50;4.97;;;3.47;;
13026;SDS011;6580;42.680;23.324;2023-03-01T04:31:20;4.27;;;2.90;;
13026;SDS011;6580;42.680;23.324;2023-03-01T04:33:47;3.40;;;2.97;;
13026;SDS011;6580;42.680;23.324;2023-03-01T04:36:16;2.90;;;2.40;;
13026;SDS011;6580;42.680;23.324;2023-03-01T04:38:46;2.90;;;2.60;;
13026;SDS011;6580;42.680;23.324;2023-03-01T04:41:14;3.17;;;2.43;;
13026;SDS011;6580;42.680;23.324;2023-03-01T04:43:43;2.80;;;2.60;;
13026;SDS011;6580;42.680;23.324;2023-03-01T04:46:11;4.47;;;2.60;;
13026;SDS011;6580;42.680;23.324;2023-03-01T04:48:40;3.87;;;2.80;;
13026;SDS011;6580;42.680;23.324;2023-03-01T04:51:09;3.83;;;2.87;;
13026;SDS011;6580;42.680;23.324;2023-03-01T04:53:40;2.67;;;2.43;;
13026;SDS011;6580;42.680;23.324;2023-03-01T04:56:09;2.80;;;2.30;;
13026;SDS011;6580;42.680;23.324;2023-03-01T04:58:40;2.97;;;2.77;;
13026;SDS011;6580;42.680;23.324;2023-03-01T05:01:10;2.60;;;2.20;;
13026;SDS011;6580;42.680;23.324;2023-03-01T05:03:40;3.37;;;3.07;;
13026;SDS011;6580;42.680;23.324;2023-03-01T05:06:10;2.77;;;2.57;;
13026;SDS011;6580;42.680;23.324;2023-03-01T05:08:39;2.67;;;2.47;;
13026;SDS011;6580;42.680;23.324;2023-03-01T05:11:09;2.70;;;2.50;;
13026;SDS011;6580;42.680;23.324;2023-03-01T05:13:38;2.43;;;2.23;;
13026;SDS011;6580;42.680;23.324;2023-03-01T05:16:10;2.60;;;2.40;;
13026;SDS011;6580;42.680;23.324;2023-03-01T05:18:37;2.53;;;2.33;;
13026;SDS011;6580;42.680;23.324;2023-03-01T05:21:06;3.07;;;2.77;;
13026;SDS011;6580;42.680;23.324;2023-03-01T05:23:34;5.23;;;3.97;;
13026;SDS011;6580;42.680;23.324;2023-03-01T05:26:03;3.07;;;2.77;;
13026;SDS011;6580;42.680;23.324;2023-03-01T05:28:33;3.13;;;2.67;;
13026;SDS011;6580;42.680;23.324;2023-03-01T05:31:00;3.77;;;3.40;;
13026;SDS011;6580;42.680;23.324;2023-03-01T05:33:28;2.70;;;2.50;;
13026;SDS011;6580;42.680;23.324;2023-03-01T05:35:59;4.03;;;3.00;;
13026;SDS011;6580;42.680;23.324;2023-03-01T05:38:28;2.97;;;2.73;;
13026;SDS011;6580;42.680;23.324;2023-03-01T05:40:56;3.90;;;2.80;;
13026;SDS011;6580;42.680;23.324;2023-03-01T05:43:23;2.70;;;2.50;;
13026;SDS011;6580;42.680;23.324;2023-03-01T05:45:54;2.07;;;1.90;;
13026;SDS011;6580;42.680;23.324;2023-03-01T05:48:26;2.60;;;2.40;;
13026;SDS011;6580;42.680;23.324;2023-03-01T05:50:54;2.40;;;2.20;;
13026;SDS011;6580;42.680;23.324;2023-03-01T05:53:26;2.60;;;2.40;;
13026;SDS011;6580;42.680;23.324;2023-03-01T05:55:54;2.97;;;2.67;;
13026;SDS011;6580;42.680;23.324;2023-03-01T05:58:22;3.33;;;3.03;;
13026;SDS011;6580;42.680;23.324;2023-03-01T06:00:49;2.93;;;2.63;;
13026;SDS011;6580;42.680;23.324;2023-03-01T06:03:19;3.47;;;3.17;;
13026;SDS011;6580;42.680;23.324;2023-03-01T06:05:45;3.83;;;3.23;;
13026;SDS011;6580;42.680;23.324;2023-03-01T06:08:12;3.87;;;3.27;;
13026;SDS011;6580;42.680;23.324;2023-03-01T06:10:39;3.70;;;3.30;;
13026;SDS011;6580;42.680;23.324;2023-03-01T06:13:06;4.67;;;3.40;;
13026;SDS011;6580;42.680;23.324;2023-03-01T06:15:33;4.70;;;3.60;;
13026;SDS011;6580;42.680;23.324;2023-03-01T06:18:00;4.13;;;3.63;;
13026;SDS011;6580;42.680;23.324;2023-03-01T06:20:28;3.20;;;2.90;;
13026;SDS011;6580;42.680;23.324;2023-03-01T06:22:59;3.20;;;2.90;;
13026;SDS011;6580;42.680;23.324;2023-03-01T06:25:26;3.43;;;2.77;;
13026;SDS011;6580;42.680;23.324;2023-03-01T06:27:53;3.60;;;3.30;;
13026;SDS011;6580;42.680;23.324;2023-03-01T06:30:22;4.13;;;3.10;;
13026;SDS011;6580;42.680;23.324;2023-03-01T06:32:49;4.33;;;3.30;;
13026;SDS011;6580;42.680;23.324;2023-03-01T06:35:16;5.13;;;3.37;;
13026;SDS011;6580;42.680;23.324;2023-03-01T06:37:46;4.03;;;3.53;;
13026;SDS011;6580;42.680;23.324;2023-03-01T06:40:15;4.87;;;3.07;;
13026;SDS011;6580;42.680;23.324;2023-03-01T06:42:42;3.53;;;3.23;;
13026;SDS011;6580;42.680;23.324;2023-03-01T06:45:13;3.37;;;3.07;;
13026;SDS011;6580;42.680;23.324;2023-03-01T06:47:43;3.47;;;3.17;;
13026;SDS011;6580;42.680;23.324;2023-03-01T06:50:12;3.83;;;3.43;;
13026;SDS011;6580;42.680;23.324;2023-03-01T06:52:39;5.27;;;3.47;;
13026;SDS011;6580;42.680;23.324;2023-03-01T06:55:08;3.47;;;3.13;;
13026;SDS011;6580;42.680;23.324;2023-03-01T06:57:35;3.50;;;3.13;;
13026;SDS011;6580;42.680;23.324;2023-03-01T07:00:02;4.73;;;3.50;;
13026;SDS011;6580;42.680;23.324;2023-03-01T07:02:29;3.90;;;3.43;;
13026;SDS011;6580;42.680;23.324;2023-03-01T07:04:57;4.57;;;3.53;;
13026;SDS011;6580;42.680;23.324;2023-03-01T07:07:24;3.53;;;3.23;;
13026;SDS011;6580;42.680;23.324;2023-03-01T07:09:52;5.90;;;3.97;;
13026;SDS011;6580;42.680;23.324;2023-03-01T07:12:23;3.37;;;3.07;;
13026;SDS011;6580;42.680;23.324;2023-03-01T07:14:51;3.17;;;2.97;;
13026;SDS011;6580;42.680;23.324;2023-03-01T07:17:19;3.20;;;2.90;;
13026;SDS011;6580;42.680;23.324;2023-03-01T07:19:46;4.77;;;3.17;;
13026;SDS011;6580;42.680;23.324;2023-03-01T07:22:13;4.60;;;4.03;;
13026;SDS011;6580;42.680;23.324;2023-03-01T07:24:40;6.20;;;4.63;;
13026;SDS011;6580;42.680;23.324;2023-03-01T07:27:07;8.67;;;5.67;;
13026;SDS011;6580;42.680;23.324;2023-03-01T07:29:36;10.17;;;5.63;;
13026;SDS011;6580;42.680;23.324;2023-03-01T07:32:03;7.13;;;4.83;;
13026;SDS011;6580;42.680;23.324;2023-03-01T07:34:31;7.40;;;5.00;;
13026;SDS011;6580;42.680;23.324;2023-03-01T07:36:58;6.47;;;5.47;;
13026;SDS011;6580;42.680;23.324;2023-03-01T07:39:26;6.30;;;4.47;;
13026;SDS011;6580;42.680;23.324;2023-03-01T07:41:53;4.10;;;3.60;;
13026;SDS011;6580;42.680;23.324;2023-03-01T07:44:20;2.80;;;2.57;;
13026;SDS011;6580;42.680;23.324;2023-03-01T07:46:49;3.57;;;3.27;;
13026;SDS011;6580;42.680;23.324;2023-03-01T07:49:21;3.07;;;2.77;;
13026;SDS011;6580;42.680;23.324;2023-03-01T07:51:48;3.57;;;3.27;;
13026;SDS011;6580;42.680;23.324;2023-03-01T07:54:15;3.13;;;2.83;;
13026;SDS011;6580;42.680;23.324;2023-03-01T07:56:44;3.80;;;3.40;;
13026;SDS011;6580;42.680;23.324;2023-03-01T07:59:10;3.97;;;3.10;;
13026;SDS011;6580;42.680;23.324;2023-03-01T08:01:37;2.70;;;2.50;;
13026;SDS011;6580;42.680;23.324;2023-03-01T08:04:06;3.23;;;2.43;;
13026;SDS011;6580;42.680;23.324;2023-03-01T08:06:34;3.80;;;2.77;;
13026;SDS011;6580;42.680;23.324;2023-03-01T08:09:02;7.20;;;4.07;;
13026;SDS011;6580;42.680;23.324;2023-03-01T08:11:29;8.53;;;4.43;;
13026;SDS011;6580;42.680;23.324;2023-03-01T08:13:56;3.60;;;3.30;;
13026;SDS011;6580;42.680;23.324;2023-03-01T08:16:23;7.97;;;4.10;;
13026;SDS011;6580;42.680;23.324;2023-03-01T08:18:50;5.17;;;3.00;;
13026;SDS011;6580;42.680;23.324;2023-03-01T08:21:20;3.37;;;3.07;;
13026;SDS011;6580;42.680;23.324;2023-03-01T08:23:47;3.03;;;2.43;;
13026;SDS011;6580;42.680;23.324;2023-03-01T08:26:15;3.00;;;2.70;;
13026;SDS011;6580;42.680;23.324;2023-03-01T08:28:44;3.17;;;2.47;;
13026;SDS011;6580;42.680;23.324;2023-03-01T08:31:15;3.60;;;2.70;;
13026;SDS011;6580;42.680;23.324;2023-03-01T08:33:44;5.30;;;4.10;;
13026;SDS011;6580;42.680;23.324;2023-03-01T08:36:15;3.80;;;3.47;;
13026;SDS011;6580;42.680;23.324;2023-03-01T08:38:46;4.10;;;3.70;;
13026;SDS011;6580;42.680;23.324;2023-03-01T08:41:15;4.47;;;4.07;;
13026;SDS011;6580;42.680;23.324;2023-03-01T08:43:43;3.60;;;3.30;;
13026;SDS011;6580;42.680;23.324;2023-03-01T08:46:10;3.90;;;3.23;;
13026;SDS011;6580;42.680;23.324;2023-03-01T08:48:38;3.37;;;3.03;;
13026;SDS011;6580;42.680;23.324;2023-03-01T08:51:08;3.17;;;2.93;;
13026;SDS011;6580;42.680;23.324;2023-03-01T08:53:38;3.50;;;3.20;;
13026;SDS011;6580;42.680;23.324;2023-03-01T08:56:06;3.40;;;3.10;;
13026;SDS011;6580;42.680;23.324;2023-03-01T08:58:36;3.33;;;3.03;;
13026;SDS011;6580;42.680;23.324;2023-03-01T09:01:06;3.37;;;3.10;;
13026;SDS011;6580;42.680;23.324;2023-03-01T09:03:33;2.80;;;2.60;;
13026;SDS011;6580;42.680;23.324;2023-03-01T09:06:06;3.10;;;2.90;;
13026;SDS011;6580;42.680;23.324;2023-03-01T09:08:34;2.83;;;2.63;;
13026;SDS011;6580;42.680;23.324;2023-03-01T09:11:01;4.20;;;3.10;;
13026;SDS011;6580;42.680;23.324;2023-03-01T09:13:30;3.13;;;2.93;;
13026;SDS011;6580;42.680;23.324;2023-03-01T09:15:57;3.47;;;2.80;;
13026;SDS011;6580;42.680;23.324;2023-03-01T09:18:24;3.47;;;2.83;;
13026;SDS011;6580;42.680;23.324;2023-03-01T09:20:51;2.60;;;2.40;;
13026;SDS011;6580;42.680;23.324;2023-03-01T09:23:20;3.23;;;2.50;;
13026;SDS011;6580;42.680;23.324;2023-03-01T09:25:46;2.40;;;2.20;;
13026;SDS011;6580;42.680;23.324;2023-03-01T09:28:14;2.90;;;2.70;;
13026;SDS011;6580;42.680;23.324;2023-03-01T09:30:42;2.30;;;2.10;;
13026;SDS011;6580;42.680;23.324;2023-03-01T09:33:10;2.40;;;2.20;;
13026;SDS011;6580;42.680;23.324;2023-03-01T09:35:39;3.00;;;2.80;;
13026;SDS011;6580;42.680;23.324;2023-03-01T09:38:12;2.80;;;2.60;;
13026;SDS011;6580;42.680;23.324;2023-03-01T09:40:41;2.37;;;2.17;;
13026;SDS011;6580;42.680;23.324;2023-03-01T09:43:14;2.13;;;2.00;;
13026;SDS011;6580;42.680;23.324;2023-03-01T09:45:50;2.63;;;2.13;;
13026;SDS011;6580;42.680;23.324;2023-03-01T09:48:21;1.90;;;1.80;;
13026;SDS011;6580;42.680;23.324;2023-03-01T09:50:52;2.50;;;2.00;;
13026;SDS011;6580;42.680;23.324;2023-03-01T09:53:20;2.07;;;1.87;;
13026;SDS011;6580;42.680;23.324;2023-03-01T09:55:49;1.87;;;1.77;;
13026;SDS011;6580;42.680;23.324;2023-03-01T09:58:37;2.77;;;2.00;;
13026;SDS011;6580;42.680;23.324;2023-03-01T10:04:08;1.60;;;1.50;;
13026;SDS011;6580;42.680;23.324;2023-03-01T10:06:51;1.93;;;1.83;;
13026;SDS011;6580;42.680;23.324;2023-03-01T10:09:24;2.30;;;2.10;;
13026;SDS011;6580;42.680;23.324;2023-03-01T10:11:53;3.23;;;2.00;;
13026;SDS011;6580;42.680;23.324;2023-03-01T10:14:27;2.97;;;2.67;;
13026;SDS011;6580;42.680;23.324;2023-03-01T10:17:08;3.67;;;3.27;;
13026;SDS011;6580;42.680;23.324;2023-03-01T10:19:45;1.97;;;1.87;;
13026;SDS011;6580;42.680;23.324;2023-03-01T10:22:13;1.90;;;1.80;;
13026;SDS011;6580;42.680;23.324;2023-03-01T10:24:46;2.07;;;1.97;;
13026;SDS011;6580;42.680;23.324;2023-03-01T10:27:19;2.63;;;2.43;;
13026;SDS011;6580;42.680;23.324;2023-03-01T10:29:51;2.13;;;2.03;;
13026;SDS011;6580;42.680;23.324;2023-03-01T10:32:37;3.17;;;2.30;;
13026;SDS011;6580;42.680;23.324;2023-03-01T10:35:15;2.53;;;2.10;;
13026;SDS011;6580;42.680;23.324;2023-03-01T10:37:46;2.90;;;2.57;;
13026;SDS011;6580;42.680;23.324;2023-03-01T10:40:23;2.37;;;2.27;;
13026;SDS011;6580;42.680;23.324;2023-03-01T10:42:51;4.90;;;2.60;;
13026;SDS011;6580;42.680;23.324;2023-03-01T10:45:27;2.70;;;2.03;;
13026;SDS011;6580;42.680;23.324;2023-03-01T10:50:46;3.57;;;2.63;;
13026;SDS011;6580;42.680;23.324;2023-03-01T10:53:22;2.67;;;2.03;;
13026;SDS011;6580;42.680;23.324;2023-03-01T10:55:59;2.97;;;2.30;;
13026;SDS011;6580;42.680;23.324;2023-03-01T10:58:28;2.87;;;2.20;;
13026;SDS011;6580;42.680;23.324;2023-03-01T11:00:56;1.90;;;1.80;;
13026;SDS011;6580;42.680;23.324;2023-03-01T11:03:28;2.23;;;2.03;;
13026;SDS011;6580;42.680;23.324;2023-03-01T11:05:58;2.03;;;1.83;;
13026;SDS011;6580;42.680;23.324;2023-03-01T11:08:40;2.03;;;1.93;;
13026;SDS011;6580;42.680;23.324;2023-03-01T11:11:22;4.10;;;2.20;;
13026;SDS011;6580;42.680;23.324;2023-03-01T11:13:57;2.13;;;2.00;;
13026;SDS011;6580;42.680;23.324;2023-03-01T11:16:29;2.50;;;2.30;;
13026;SDS011;6580;42.680;23.324;2023-03-01T11:19:03;2.00;;;1.90;;
13026;SDS011;6580;42.680;23.324;2023-03-01T11:21:41;1.97;;;1.87;;
13026;SDS011;6580;42.680;23.324;2023-03-01T11:24:17;2.33;;;2.13;;
13026;SDS011;6580;42.680;23.324;2023-03-01T11:26:47;2.30;;;2.20;;
13026;SDS011;6580;42.680;23.324;2023-03-01T11:29:21;2.07;;;1.87;;
13026;SDS011;6580;42.680;23.324;2023-03-01T11:31:54;2.20;;;1.77;;
13026;SDS011;6580;42.680;23.324;2023-03-01T11:34:28;1.40;;;1.30;;
13026;SDS011;6580;42.680;23.324;2023-03-01T11:37:02;1.80;;;1.70;;
13026;SDS011;6580;42.680;23.324;2023-03-01T11:39:43;2.30;;;2.07;;
13026;SDS011;6580;42.680;23.324;2023-03-01T11:42:18;1.57;;;1.47;;
13026;SDS011;6580;42.680;23.324;2023-03-01T11:44:50;2.33;;;2.13;;
13026;SDS011;6580;42.680;23.324;2023-03-01T11:47:23;2.10;;;2.00;;
13026;SDS011;6580;42.680;23.324;2023-03-01T11:50:02;14.47;;;7.43;;
13026;SDS011;6580;42.680;23.324;2023-03-01T11:52:44;4.70;;;3.57;;
13026;SDS011;6580;42.680;23.324;2023-03-01T11:55:21;2.80;;;2.60;;
13026;SDS011;6580;42.680;23.324;2023-03-01T11:58:04;2.77;;;2.57;;
13026;SDS011;6580;42.680;23.324;2023-03-01T12:00:46;2.70;;;2.50;;
13026;SDS011;6580;42.680;23.324;2023-03-01T12:03:31;2.93;;;2.73;;
13026;SDS011;6580;42.680;23.324;2023-03-01T12:06:29;2.70;;;2.50;;
13026;SDS011;6580;42.680;23.324;2023-03-01T12:09:17;2.63;;;2.43;;
13026;SDS011;6580;42.680;23.324;2023-03-01T12:12:03;3.27;;;2.73;;
13026;SDS011;6580;42.680;23.324;2023-03-01T12:14:55;3.30;;;3.00;;
13026;SDS011;6580;42.680;23.324;2023-03-01T12:17:48;2.60;;;2.40;;
13026;SDS011;6580;42.680;23.324;2023-03-01T12:20:30;3.73;;;3.10;;
13026;SDS011;6580;42.680;23.324;2023-03-01T12:23:21;3.20;;;2.90;;
13026;SDS011;6580;42.680;23.324;2023-03-01T12:26:04;3.80;;;3.50;;
13026;SDS011;6580;42.680;23.324;2023-03-01T12:28:49;4.03;;;3.70;;
13026;SDS011;6580;42.680;23.324;2023-03-01T12:34:35;4.23;;;3.53;;
13026;SDS011;6580;42.680;23.324;2023-03-01T12:37:18;4.87;;;3.40;;
13026;SDS011;6580;42.680;23.324;2023-03-01T12:39:59;3.77;;;3.33;;
13026;SDS011;6580;42.680;23.324;2023-03-01T12:42:39;6.20;;;4.63;;
13026;SDS011;6580;42.680;23.324;2023-03-01T12:45:26;3.43;;;3.13;;
13026;SDS011;6580;42.680;23.324;2023-03-01T12:48:13;5.57;;;4.10;;
13026;SDS011;6580;42.680;23.324;2023-03-01T12:50:52;4.90;;;4.40;;
13026;SDS011;6580;42.680;23.324;2023-03-01T12:53:22;4.00;;;3.60;;
13026;SDS011;6580;42.680;23.324;2023-03-01T12:55:53;3.63;;;3.30;;
13026;SDS011;6580;42.680;23.324;2023-03-01T12:58:27;3.53;;;3.10;;
13026;SDS011;6580;42.680;23.324;2023-03-01T13:01:05;3.97;;;3.27;;
13026;SDS011;6580;42.680;23.324;2023-03-01T13:03:48;3.43;;;3.13;;
13026;SDS011;6580;42.680;23.324;2023-03-01T13:06:30;3.93;;;3.50;;
13026;SDS011;6580;42.680;23.324;2023-03-01T13:09:09;3.60;;;3.30;;
13026;SDS011;6580;42.680;23.324;2023-03-01T13:11:46;3.47;;;3.17;;
13026;SDS011;6580;42.680;23.324;2023-03-01T13:17:03;4.13;;;3.73;;
13026;SDS011;6580;42.680;23.324;2023-03-01T13:19:30;3.63;;;3.33;;
13026;SDS011;6580;42.680;23.324;2023-03-01T13:21:58;4.60;;;3.57;;
13026;SDS011;6580;42.680;23.324;2023-03-01T13:24:26;4.60;;;3.87;;
13026;SDS011;6580;42.680;23.324;2023-03-01T13:27:19;3.40;;;3.10;;
13026;SDS011;6580;42.680;23.324;2023-03-01T13:29:54;4.20;;;3.40;;
13026;SDS011;6580;42.680;23.324;2023-03-01T13:32:25;3.33;;;2.70;;
13026;SDS011;6580;42.680;23.324;2023-03-01T13:34:54;3.90;;;3.43;;
13026;SDS011;6580;42.680;23.324;2023-03-01T13:37:26;3.73;;;3.30;;
13026;SDS011;6580;42.680;23.324;2023-03-01T13:43:28;3.80;;;3.07;;
13026;SDS011;6580;42.680;23.324;2023-03-01T13:45:57;3.87;;;2.80;;
13026;SDS011;6580;42.680;23.324;2023-03-01T13:48:26;2.90;;;2.60;;
13026;SDS011;6580;42.680;23.324;2023-03-01T13:50:57;3.93;;;2.87;;
13026;SDS011;6580;42.680;23.324;2023-03-01T13:53:28;3.13;;;2.83;;
13026;SDS011;6580;42.680;23.324;2023-03-01T13:55:58;5.43;;;3.73;;
13026;SDS011;6580;42.680;23.324;2023-03-01T13:58:30;4.97;;;3.57;;
13026;SDS011;6580;42.680;23.324;2023-03-01T14:01:01;4.10;;;3.50;;
13026;SDS011;6580;42.680;23.324;2023-03-01T14:03:30;3.70;;;3.40;;
13026;SDS011;6580;42.680;23.324;2023-03-01T14:06:02;4.07;;;3.50;;
13026;SDS011;6580;42.680;23.324;2023-03-01T14:08:34;5.13;;;3.57;;
13026;SDS011;6580;42.680;23.324;2023-03-01T14:11:09;4.27;;;3.77;;
13026;SDS011;6580;42.680;23.324;2023-03-01T14:13:54;3.97;;;3.17;;
13026;SDS011;6580;42.680;23.324;2023-03-01T14:16:33;4.10;;;3.13;;
13026;SDS011;6580;42.680;23.324;2023-03-01T14:19:13;3.77;;;3.20;;
13026;SDS011;6580;42.680;23.324;2023-03-01T14:21:44;2.90;;;2.70;;
13026;SDS011;6580;42.680;23.324;2023-03-01T14:24:20;2.93;;;2.73;;
13026;SDS011;6580;42.680;23.324;2023-03-01T14:26:48;4.03;;;3.17;;
13026;SDS011;6580;42.680;23.324;2023-03-01T14:29:35;4.77;;;2.90;;
13026;SDS011;6580;42.680;23.324;2023-03-01T14:32:10;3.43;;;2.77;;
13026;SDS011;6580;42.680;23.324;2023-03-01T14:34:42;3.73;;;3.40;;
13026;SDS011;6580;42.680;23.324;2023-03-01T14:37:11;3.50;;;3.20;;
13026;SDS011;6580;42.680;23.324;2023-03-01T14:39:48;3.57;;;3.20;;
13026;SDS011;6580;42.680;23.324;2023-03-01T14:42:15;3.13;;;2.83;;
13026;SDS011;6580;42.680;23.324;2023-03-01T14:44:45;3.33;;;2.90;;
13026;SDS011;6580;42.680;23.324;2023-03-01T14:47:14;3.77;;;2.67;;
13026;SDS011;6580;42.680;23.324;2023-03-01T14:49:49;4.23;;;3.03;;
13026;SDS011;6580;42.680;23.324;2023-03-01T14:52:21;3.17;;;2.70;;
13026;SDS011;6580;42.680;23.324;2023-03-01T14:54:52;3.17;;;2.70;;
13026;SDS011;6580;42.680;23.324;2023-03-01T14:57:21;2.50;;;2.30;;
13026;SDS011;6580;42.680;23.324;2023-03-01T14:59:52;2.97;;;2.67;;
13026;SDS011;6580;42.680;23.324;2023-03-01T15:02:24;3.63;;;2.67;;
13026;SDS011;6580;42.680;23.324;2023-03-01T15:04:54;3.30;;;2.57;;
13026;SDS011;6580;42.680;23.324;2023-03-01T15:07:26;3.40;;;2.87;;
13026;SDS011;6580;42.680;23.324;2023-03-01T15:09:56;3.13;;;2.83;;
13026;SDS011;6580;42.680;23.324;2023-03-01T15:12:35;3.83;;;2.90;;
13026;SDS011;6580;42.680;23.324;2023-03-01T15:17:50;4.07;;;3.07;;
13026;SDS011;6580;42.680;23.324;2023-03-01T15:20:22;3.77;;;3.03;;
13026;SDS011;6580;42.680;23.324;2023-03-01T15:22:52;3.10;;;2.80;;
13026;SDS011;6580;42.680;23.324;2023-03-01T15:25:21;3.57;;;3.17;;
13026;SDS011;6580;42.680;23.324;2023-03-01T15:27:51;3.67;;;3.00;;
13026;SDS011;6580;42.680;23.324;2023-03-01T15:30:22;3.47;;;3.07;;
13026;SDS011;6580;42.680;23.324;2023-03-01T15:35:52;5.43;;;4.40;;
13026;SDS011;6580;42.680;23.324;2023-03-01T15:38:25;4.10;;;3.43;;